Terminal Aerodrome Forecast
Issued by NWS Paducah, KY

Home | Current Version | Previous Version | Text Only | Print | Product List | Glossary On
Versions: 1 2 3 4 5 6 7 8 9 10 11 12 13 14 15 16 17 18 19 20 21 22
000
FTUS43 KPAH 181721
TAFPAH
TAF
KPAH 181721Z 1818/1918 23004KT P6SM VCTS BKN050CB
     FM190000 00000KT 6SM -SHRA BR BKN100
     FM190600 00000KT 4SM BR BKN120
     FM191400 VRB03KT P6SM SCT140=

USA.gov is the U.S. government's official web portal to all federal, state and local government web resources and services.